sensor_id;sensor_type;location;lat;lon;timestamp;P1;durP1;ratioP1;P2;durP2;ratioP2
20229;SDS011;12195;55.790;37.572;2023-02-25T00:00:32;15.05;;;7.97;;
20229;SDS011;12195;55.790;37.572;2023-02-25T00:03:05;17.17;;;9.50;;
20229;SDS011;12195;55.790;37.572;2023-02-25T00:05:41;19.37;;;10.40;;
20229;SDS011;12195;55.790;37.572;2023-02-25T00:08:13;18.05;;;10.48;;
20229;SDS011;12195;55.790;37.572;2023-02-25T00:10:45;19.32;;;10.23;;
20229;SDS011;12195;55.790;37.572;2023-02-25T00:13:20;17.75;;;10.95;;
20229;SDS011;12195;55.790;37.572;2023-02-25T00:15:52;21.12;;;10.90;;
20229;SDS011;12195;55.790;37.572;2023-02-25T00:18:27;20.50;;;10.30;;
20229;SDS011;12195;55.790;37.572;2023-02-25T00:21:02;18.70;;;11.22;;
20229;SDS011;12195;55.790;37.572;2023-02-25T00:23:39;18.27;;;10.40;;
20229;SDS011;12195;55.790;37.572;2023-02-25T00:26:13;17.05;;;9.55;;
20229;SDS011;12195;55.790;37.572;2023-02-25T00:28:47;18.05;;;9.35;;
20229;SDS011;12195;55.790;37.572;2023-02-25T00:31:20;19.07;;;11.10;;
20229;SDS011;12195;55.790;37.572;2023-02-25T00:33:54;20.12;;;10.43;;
20229;SDS011;12195;55.790;37.572;2023-02-25T00:36:26;20.68;;;10.85;;
20229;SDS011;12195;55.790;37.572;2023-02-25T00:38:58;18.42;;;10.23;;
20229;SDS011;12195;55.790;37.572;2023-02-25T00:41:31;17.30;;;10.18;;
20229;SDS011;12195;55.790;37.572;2023-02-25T00:46:36;21.10;;;9.98;;
20229;SDS011;12195;55.790;37.572;2023-02-25T00:49:10;19.12;;;10.48;;
20229;SDS011;12195;55.790;37.572;2023-02-25T00:51:44;23.10;;;11.45;;
20229;SDS011;12195;55.790;37.572;2023-02-25T00:54:15;19.73;;;10.65;;
20229;SDS011;12195;55.790;37.572;2023-02-25T00:56:47;19.40;;;11.43;;
20229;SDS011;12195;55.790;37.572;2023-02-25T00:59:20;15.93;;;9.75;;
20229;SDS011;12195;55.790;37.572;2023-02-25T01:01:53;18.70;;;9.83;;
20229;SDS011;12195;55.790;37.572;2023-02-25T01:04:25;19.92;;;10.32;;
20229;SDS011;12195;55.790;37.572;2023-02-25T01:06:57;16.35;;;9.63;;
20229;SDS011;12195;55.790;37.572;2023-02-25T01:09:33;18.85;;;9.98;;
20229;SDS011;12195;55.790;37.572;2023-02-25T01:12:06;19.12;;;10.23;;
20229;SDS011;12195;55.790;37.572;2023-02-25T01:14:39;25.02;;;10.48;;
20229;SDS011;12195;55.790;37.572;2023-02-25T01:17:12;17.73;;;10.30;;
20229;SDS011;12195;55.790;37.572;2023-02-25T01:19:44;23.87;;;10.20;;
20229;SDS011;12195;55.790;37.572;2023-02-25T01:22:16;18.90;;;10.35;;
20229;SDS011;12195;55.790;37.572;2023-02-25T01:24:49;16.05;;;9.83;;
20229;SDS011;12195;55.790;37.572;2023-02-25T01:29:54;18.80;;;10.55;;
20229;SDS011;12195;55.790;37.572;2023-02-25T01:32:30;21.17;;;10.82;;
20229;SDS011;12195;55.790;37.572;2023-02-25T01:35:03;25.57;;;12.10;;
20229;SDS011;12195;55.790;37.572;2023-02-25T01:37:36;17.77;;;9.20;;
20229;SDS011;12195;55.790;37.572;2023-02-25T01:40:10;16.75;;;9.83;;
20229;SDS011;12195;55.790;37.572;2023-02-25T01:42:45;19.15;;;10.72;;
20229;SDS011;12195;55.790;37.572;2023-02-25T01:47:57;21.87;;;11.03;;
20229;SDS011;12195;55.790;37.572;2023-02-25T01:50:39;21.93;;;11.03;;
20229;SDS011;12195;55.790;37.572;2023-02-25T01:53:13;17.57;;;10.50;;
20229;SDS011;12195;55.790;37.572;2023-02-25T01:55:48;18.50;;;9.70;;
20229;SDS011;12195;55.790;37.572;2023-02-25T01:58:21;16.75;;;9.65;;
20229;SDS011;12195;55.790;37.572;2023-02-25T02:00:54;17.92;;;10.68;;
20229;SDS011;12195;55.790;37.572;2023-02-25T02:03:29;15.85;;;9.50;;
20229;SDS011;12195;55.790;37.572;2023-02-25T02:08:59;18.17;;;10.20;;
20229;SDS011;12195;55.790;37.572;2023-02-25T02:11:32;20.52;;;11.00;;
20229;SDS011;12195;55.790;37.572;2023-02-25T02:14:05;20.05;;;9.68;;
20229;SDS011;12195;55.790;37.572;2023-02-25T02:22:35;20.55;;;10.80;;
20229;SDS011;12195;55.790;37.572;2023-02-25T02:45:04;20.35;;;9.83;;
20229;SDS011;12195;55.790;37.572;2023-02-25T02:47:39;18.95;;;10.90;;
20229;SDS011;12195;55.790;37.572;2023-02-25T02:53:07;19.00;;;9.90;;
20229;SDS011;12195;55.790;37.572;2023-02-25T02:55:45;19.35;;;9.48;;
20229;SDS011;12195;55.790;37.572;2023-02-25T02:58:40;23.22;;;10.50;;
20229;SDS011;12195;55.790;37.572;2023-02-25T03:01:28;18.95;;;10.20;;
20229;SDS011;12195;55.790;37.572;2023-02-25T03:04:03;15.78;;;8.83;;
20229;SDS011;12195;55.790;37.572;2023-02-25T03:06:44;16.60;;;8.73;;
20229;SDS011;12195;55.790;37.572;2023-02-25T03:09:20;15.32;;;8.18;;
20229;SDS011;12195;55.790;37.572;2023-02-25T03:11:54;15.30;;;8.48;;
20229;SDS011;12195;55.790;37.572;2023-02-25T03:14:26;16.17;;;9.63;;
20229;SDS011;12195;55.790;37.572;2023-02-25T03:17:23;14.83;;;9.08;;
20229;SDS011;12195;55.790;37.572;2023-02-25T03:22:34;21.87;;;9.65;;
20229;SDS011;12195;55.790;37.572;2023-02-25T03:25:09;23.25;;;9.60;;
20229;SDS011;12195;55.790;37.572;2023-02-25T03:27:44;17.90;;;9.65;;
20229;SDS011;12195;55.790;37.572;2023-02-25T03:33:05;19.57;;;9.98;;
20229;SDS011;12195;55.790;37.572;2023-02-25T03:35:50;24.45;;;9.60;;
20229;SDS011;12195;55.790;37.572;2023-02-25T03:38:26;22.65;;;10.20;;
20229;SDS011;12195;55.790;37.572;2023-02-25T03:41:00;19.05;;;8.88;;
20229;SDS011;12195;55.790;37.572;2023-02-25T03:43:40;29.50;;;10.28;;
20229;SDS011;12195;55.790;37.572;2023-02-25T03:46:15;29.90;;;11.20;;
20229;SDS011;12195;55.790;37.572;2023-02-25T03:48:50;53.92;;;11.90;;
20229;SDS011;12195;55.790;37.572;2023-02-25T03:51:29;50.60;;;11.57;;
20229;SDS011;12195;55.790;37.572;2023-02-25T03:54:01;15.38;;;7.17;;
20229;SDS011;12195;55.790;37.572;2023-02-25T03:56:45;24.67;;;9.83;;
20229;SDS011;12195;55.790;37.572;2023-02-25T03:59:19;26.07;;;10.40;;
20229;SDS011;12195;55.790;37.572;2023-02-25T04:04:25;16.77;;;9.23;;
20229;SDS011;12195;55.790;37.572;2023-02-25T04:06:58;44.80;;;11.63;;
20229;SDS011;12195;55.790;37.572;2023-02-25T04:09:30;30.05;;;10.80;;
20229;SDS011;12195;55.790;37.572;2023-02-25T04:12:03;26.10;;;10.95;;
20229;SDS011;12195;55.790;37.572;2023-02-25T04:14:36;52.60;;;12.33;;
20229;SDS011;12195;55.790;37.572;2023-02-25T04:17:09;55.50;;;11.83;;
20229;SDS011;12195;55.790;37.572;2023-02-25T04:19:42;45.90;;;10.32;;
20229;SDS011;12195;55.790;37.572;2023-02-25T04:22:14;50.00;;;10.25;;
20229;SDS011;12195;55.790;37.572;2023-02-25T04:24:46;44.27;;;11.50;;
20229;SDS011;12195;55.790;37.572;2023-02-25T04:27:19;26.02;;;10.05;;
20229;SDS011;12195;55.790;37.572;2023-02-25T04:29:51;21.62;;;8.95;;
20229;SDS011;12195;55.790;37.572;2023-02-25T04:32:23;39.58;;;10.88;;
20229;SDS011;12195;55.790;37.572;2023-02-25T04:34:56;28.83;;;9.20;;
20229;SDS011;12195;55.790;37.572;2023-02-25T04:37:30;23.67;;;9.70;;
20229;SDS011;12195;55.790;37.572;2023-02-25T04:40:03;40.35;;;11.03;;
20229;SDS011;12195;55.790;37.572;2023-02-25T04:42:42;38.83;;;9.98;;
20229;SDS011;12195;55.790;37.572;2023-02-25T04:45:15;42.23;;;11.12;;
20229;SDS011;12195;55.790;37.572;2023-02-25T04:47:47;71.70;;;12.80;;
20229;SDS011;12195;55.790;37.572;2023-02-25T04:50:21;31.52;;;9.13;;
20229;SDS011;12195;55.790;37.572;2023-02-25T04:52:54;47.35;;;10.38;;
20229;SDS011;12195;55.790;37.572;2023-02-25T04:55:27;67.30;;;11.25;;
20229;SDS011;12195;55.790;37.572;2023-02-25T04:58:00;60.88;;;11.45;;
20229;SDS011;12195;55.790;37.572;2023-02-25T05:00:32;31.12;;;9.45;;
20229;SDS011;12195;55.790;37.572;2023-02-25T05:03:04;31.52;;;9.23;;
20229;SDS011;12195;55.790;37.572;2023-02-25T05:05:37;24.00;;;10.10;;
20229;SDS011;12195;55.790;37.572;2023-02-25T05:08:09;47.50;;;10.00;;
20229;SDS011;12195;55.790;37.572;2023-02-25T05:10:41;56.95;;;11.50;;
20229;SDS011;12195;55.790;37.572;2023-02-25T05:13:14;45.75;;;10.95;;
20229;SDS011;12195;55.790;37.572;2023-02-25T05:15:47;77.12;;;14.50;;
20229;SDS011;12195;55.790;37.572;2023-02-25T05:18:19;73.10;;;13.72;;
20229;SDS011;12195;55.790;37.572;2023-02-25T05:20:53;32.30;;;8.78;;
20229;SDS011;12195;55.790;37.572;2023-02-25T05:23:25;53.08;;;12.10;;
20229;SDS011;12195;55.790;37.572;2023-02-25T05:25:58;36.20;;;10.18;;
20229;SDS011;12195;55.790;37.572;2023-02-25T05:28:30;60.03;;;11.53;;
20229;SDS011;12195;55.790;37.572;2023-02-25T05:31:03;64.85;;;13.55;;
20229;SDS011;12195;55.790;37.572;2023-02-25T05:33:38;33.08;;;10.58;;
20229;SDS011;12195;55.790;37.572;2023-02-25T05:36:13;43.50;;;9.75;;
20229;SDS011;12195;55.790;37.572;2023-02-25T05:38:46;44.18;;;9.25;;
20229;SDS011;12195;55.790;37.572;2023-02-25T05:41:19;46.28;;;10.78;;
20229;SDS011;12195;55.790;37.572;2023-02-25T05:43:52;52.48;;;10.82;;
20229;SDS011;12195;55.790;37.572;2023-02-25T05:46:24;42.83;;;10.80;;
20229;SDS011;12195;55.790;37.572;2023-02-25T05:48:57;59.45;;;11.15;;
20229;SDS011;12195;55.790;37.572;2023-02-25T05:51:29;54.63;;;11.43;;
20229;SDS011;12195;55.790;37.572;2023-02-25T05:54:01;66.33;;;11.57;;
20229;SDS011;12195;55.790;37.572;2023-02-25T05:56:33;50.23;;;11.38;;
20229;SDS011;12195;55.790;37.572;2023-02-25T05:59:06;45.45;;;10.43;;
20229;SDS011;12195;55.790;37.572;2023-02-25T06:01:39;33.70;;;10.63;;
20229;SDS011;12195;55.790;37.572;2023-02-25T06:04:12;56.80;;;10.82;;
20229;SDS011;12195;55.790;37.572;2023-02-25T06:06:45;65.17;;;11.28;;
20229;SDS011;12195;55.790;37.572;2023-02-25T06:09:19;44.73;;;9.60;;
20229;SDS011;12195;55.790;37.572;2023-02-25T06:11:52;58.08;;;11.73;;
20229;SDS011;12195;55.790;37.572;2023-02-25T06:14:25;50.40;;;8.55;;
20229;SDS011;12195;55.790;37.572;2023-02-25T06:16:57;35.73;;;10.00;;
20229;SDS011;12195;55.790;37.572;2023-02-25T06:19:29;51.10;;;9.73;;
20229;SDS011;12195;55.790;37.572;2023-02-25T06:22:01;31.10;;;7.12;;
20229;SDS011;12195;55.790;37.572;2023-02-25T06:24:33;45.38;;;10.25;;
20229;SDS011;12195;55.790;37.572;2023-02-25T06:27:06;20.55;;;6.40;;
20229;SDS011;12195;55.790;37.572;2023-02-25T06:29:38;25.15;;;8.15;;
20229;SDS011;12195;55.790;37.572;2023-02-25T06:32:10;25.90;;;6.37;;
20229;SDS011;12195;55.790;37.572;2023-02-25T06:34:44;52.03;;;9.60;;
20229;SDS011;12195;55.790;37.572;2023-02-25T06:37:17;59.93;;;10.32;;
20229;SDS011;12195;55.790;37.572;2023-02-25T06:39:51;15.18;;;6.05;;
20229;SDS011;12195;55.790;37.572;2023-02-25T06:42:25;68.45;;;11.43;;
20229;SDS011;12195;55.790;37.572;2023-02-25T06:44:58;77.22;;;11.60;;
20229;SDS011;12195;55.790;37.572;2023-02-25T06:47:30;46.25;;;9.15;;
20229;SDS011;12195;55.790;37.572;2023-02-25T06:50:03;46.55;;;10.85;;
20229;SDS011;12195;55.790;37.572;2023-02-25T06:52:36;75.78;;;13.68;;
20229;SDS011;12195;55.790;37.572;2023-02-25T06:55:11;49.13;;;9.85;;
20229;SDS011;12195;55.790;37.572;2023-02-25T06:57:43;78.52;;;15.40;;
20229;SDS011;12195;55.790;37.572;2023-02-25T07:00:16;53.45;;;11.40;;
20229;SDS011;12195;55.790;37.572;2023-02-25T07:02:49;51.67;;;12.27;;
20229;SDS011;12195;55.790;37.572;2023-02-25T07:05:21;20.62;;;7.40;;
20229;SDS011;12195;55.790;37.572;2023-02-25T07:07:54;28.50;;;8.20;;
20229;SDS011;12195;55.790;37.572;2023-02-25T07:10:27;39.40;;;7.93;;
20229;SDS011;12195;55.790;37.572;2023-02-25T07:13:00;25.32;;;8.45;;
20229;SDS011;12195;55.790;37.572;2023-02-25T07:15:33;34.53;;;9.00;;
20229;SDS011;12195;55.790;37.572;2023-02-25T07:18:06;26.48;;;8.90;;
20229;SDS011;12195;55.790;37.572;2023-02-25T07:20:38;29.07;;;8.30;;
20229;SDS011;12195;55.790;37.572;2023-02-25T07:23:11;18.85;;;6.20;;
20229;SDS011;12195;55.790;37.572;2023-02-25T07:25:44;37.75;;;10.98;;
20229;SDS011;12195;55.790;37.572;2023-02-25T07:28:16;36.17;;;8.95;;
20229;SDS011;12195;55.790;37.572;2023-02-25T07:30:49;58.13;;;11.20;;
20229;SDS011;12195;55.790;37.572;2023-02-25T07:33:22;70.78;;;11.73;;
20229;SDS011;12195;55.790;37.572;2023-02-25T07:35:54;48.78;;;9.85;;
20229;SDS011;12195;55.790;37.572;2023-02-25T07:38:27;54.00;;;11.15;;
20229;SDS011;12195;55.790;37.572;2023-02-25T07:41:03;58.78;;;11.43;;
20229;SDS011;12195;55.790;37.572;2023-02-25T07:43:37;28.62;;;9.15;;
20229;SDS011;12195;55.790;37.572;2023-02-25T07:46:10;32.08;;;6.80;;
20229;SDS011;12195;55.790;37.572;2023-02-25T07:48:43;47.35;;;9.48;;
20229;SDS011;12195;55.790;37.572;2023-02-25T07:51:18;34.15;;;8.10;;
20229;SDS011;12195;55.790;37.572;2023-02-25T07:53:52;44.40;;;7.70;;
20229;SDS011;12195;55.790;37.572;2023-02-25T07:56:27;26.68;;;7.67;;
20229;SDS011;12195;55.790;37.572;2023-02-25T07:59:01;40.25;;;10.05;;
20229;SDS011;12195;55.790;37.572;2023-02-25T08:01:33;22.50;;;7.60;;
20229;SDS011;12195;55.790;37.572;2023-02-25T08:04:07;73.02;;;13.62;;
20229;SDS011;12195;55.790;37.572;2023-02-25T08:06:40;36.88;;;8.70;;
20229;SDS011;12195;55.790;37.572;2023-02-25T08:09:13;36.63;;;9.03;;
20229;SDS011;12195;55.790;37.572;2023-02-25T08:11:45;56.02;;;10.58;;
20229;SDS011;12195;55.790;37.572;2023-02-25T08:14:17;38.60;;;9.08;;
20229;SDS011;12195;55.790;37.572;2023-02-25T08:16:53;61.37;;;10.98;;
20229;SDS011;12195;55.790;37.572;2023-02-25T08:19:25;50.43;;;9.95;;
20229;SDS011;12195;55.790;37.572;2023-02-25T08:21:58;29.30;;;8.58;;
20229;SDS011;12195;55.790;37.572;2023-02-25T08:24:30;27.35;;;7.15;;
20229;SDS011;12195;55.790;37.572;2023-02-25T08:27:03;19.87;;;7.30;;
20229;SDS011;12195;55.790;37.572;2023-02-25T08:29:38;30.52;;;7.67;;
20229;SDS011;12195;55.790;37.572;2023-02-25T08:32:11;61.68;;;10.25;;
20229;SDS011;12195;55.790;37.572;2023-02-25T08:34:43;33.23;;;8.10;;
20229;SDS011;12195;55.790;37.572;2023-02-25T08:37:17;43.90;;;9.50;;
20229;SDS011;12195;55.790;37.572;2023-02-25T08:39:55;31.30;;;8.53;;
20229;SDS011;12195;55.790;37.572;2023-02-25T08:42:28;86.15;;;23.47;;
20229;SDS011;12195;55.790;37.572;2023-02-25T08:45:00;45.33;;;9.13;;
20229;SDS011;12195;55.790;37.572;2023-02-25T08:47:33;76.07;;;10.63;;
20229;SDS011;12195;55.790;37.572;2023-02-25T08:50:06;35.63;;;8.80;;
20229;SDS011;12195;55.790;37.572;2023-02-25T08:52:40;46.37;;;8.25;;
20229;SDS011;12195;55.790;37.572;2023-02-25T08:55:12;31.80;;;7.33;;
20229;SDS011;12195;55.790;37.572;2023-02-25T08:57:46;37.08;;;8.43;;
20229;SDS011;12195;55.790;37.572;2023-02-25T09:00:19;34.85;;;7.83;;
20229;SDS011;12195;55.790;37.572;2023-02-25T09:02:52;19.35;;;8.48;;
20229;SDS011;12195;55.790;37.572;2023-02-25T09:05:25;29.72;;;7.80;;
20229;SDS011;12195;55.790;37.572;2023-02-25T09:07:57;51.68;;;9.98;;
20229;SDS011;12195;55.790;37.572;2023-02-25T09:10:30;74.87;;;13.15;;
20229;SDS011;12195;55.790;37.572;2023-02-25T09:13:06;36.15;;;9.38;;
20229;SDS011;12195;55.790;37.572;2023-02-25T09:15:38;56.35;;;12.93;;
20229;SDS011;12195;55.790;37.572;2023-02-25T09:18:14;81.95;;;11.28;;
20229;SDS011;12195;55.790;37.572;2023-02-25T09:20:48;63.33;;;11.50;;
20229;SDS011;12195;55.790;37.572;2023-02-25T09:26:00;106.67;;;16.23;;
20229;SDS011;12195;55.790;37.572;2023-02-25T09:28:35;104.32;;;13.85;;
20229;SDS011;12195;55.790;37.572;2023-02-25T09:31:07;94.45;;;11.45;;
20229;SDS011;12195;55.790;37.572;2023-02-25T09:33:40;78.20;;;10.88;;
20229;SDS011;12195;55.790;37.572;2023-02-25T09:36:16;48.30;;;8.88;;
20229;SDS011;12195;55.790;37.572;2023-02-25T09:38:49;38.55;;;7.90;;
20229;SDS011;12195;55.790;37.572;2023-02-25T09:44:14;34.40;;;6.97;;
20229;SDS011;12195;55.790;37.572;2023-02-25T09:46:52;41.90;;;8.30;;
20229;SDS011;12195;55.790;37.572;2023-02-25T09:49:49;40.90;;;7.55;;
20229;SDS011;12195;55.790;37.572;2023-02-25T09:52:26;43.05;;;6.92;;
20229;SDS011;12195;55.790;37.572;2023-02-25T09:55:14;25.45;;;5.15;;
20229;SDS011;12195;55.790;37.572;2023-02-25T09:57:47;58.20;;;7.95;;
20229;SDS011;12195;55.790;37.572;2023-02-25T10:03:10;40.85;;;7.37;;
20229;SDS011;12195;55.790;37.572;2023-02-25T10:11:06;19.52;;;6.08;;
20229;SDS011;12195;55.790;37.572;2023-02-25T10:13:51;40.80;;;8.15;;
20229;SDS011;12195;55.790;37.572;2023-02-25T10:19:30;34.25;;;7.20;;
20229;SDS011;12195;55.790;37.572;2023-02-25T10:25:08;7.35;;;3.95;;
20229;SDS011;12195;55.790;37.572;2023-02-25T10:27:58;14.78;;;4.50;;
20229;SDS011;12195;55.790;37.572;2023-02-25T10:30:43;10.78;;;4.78;;
20229;SDS011;12195;55.790;37.572;2023-02-25T10:33:20;11.80;;;4.80;;
20229;SDS011;12195;55.790;37.572;2023-02-25T10:36:03;12.95;;;4.75;;
20229;SDS011;12195;55.790;37.572;2023-02-25T10:38:42;7.97;;;3.80;;
20229;SDS011;12195;55.790;37.572;2023-02-25T10:41:17;6.08;;;4.15;;
20229;SDS011;12195;55.790;37.572;2023-02-25T10:43:53;19.35;;;5.22;;
20229;SDS011;12195;55.790;37.572;2023-02-25T10:46:33;9.38;;;3.92;;
20229;SDS011;12195;55.790;37.572;2023-02-25T10:49:15;8.60;;;4.67;;
20229;SDS011;12195;55.790;37.572;2023-02-25T10:51:56;15.18;;;4.83;;
20229;SDS011;12195;55.790;37.572;2023-02-25T10:54:48;22.20;;;5.47;;
20229;SDS011;12195;55.790;37.572;2023-02-25T10:57:26;14.75;;;4.85;;
20229;SDS011;12195;55.790;37.572;2023-02-25T11:00:02;17.52;;;4.55;;
20229;SDS011;12195;55.790;37.572;2023-02-25T11:02:38;17.10;;;5.08;;
20229;SDS011;12195;55.790;37.572;2023-02-25T11:11:03;29.10;;;5.95;;
20229;SDS011;12195;55.790;37.572;2023-02-25T11:13:36;36.13;;;7.62;;
20229;SDS011;12195;55.790;37.572;2023-02-25T11:16:10;40.10;;;7.78;;
20229;SDS011;12195;55.790;37.572;2023-02-25T11:18:44;57.65;;;8.25;;
20229;SDS011;12195;55.790;37.572;2023-02-25T11:21:26;32.17;;;6.42;;
20229;SDS011;12195;55.790;37.572;2023-02-25T11:24:05;36.25;;;5.85;;
20229;SDS011;12195;55.790;37.572;2023-02-25T11:26:36;40.23;;;6.92;;
20229;SDS011;12195;55.790;37.572;2023-02-25T11:29:17;23.95;;;5.20;;
20229;SDS011;12195;55.790;37.572;2023-02-25T11:31:58;22.98;;;5.87;;
20229;SDS011;12195;55.790;37.572;2023-02-25T11:34:48;29.10;;;5.15;;
20229;SDS011;12195;55.790;37.572;2023-02-25T11:37:37;17.05;;;4.40;;
20229;SDS011;12195;55.790;37.572;2023-02-25T11:40:19;22.87;;;4.20;;
20229;SDS011;12195;55.790;37.572;2023-02-25T11:43:00;18.25;;;4.90;;
20229;SDS011;12195;55.790;37.572;2023-02-25T11:45:56;18.87;;;5.50;;
20229;SDS011;12195;55.790;37.572;2023-02-25T11:51:27;29.55;;;6.05;;
20229;SDS011;12195;55.790;37.572;2023-02-25T11:54:09;38.23;;;6.90;;
20229;SDS011;12195;55.790;37.572;2023-02-25T11:56:49;34.18;;;6.72;;
20229;SDS011;12195;55.790;37.572;2023-02-25T12:02:18;25.82;;;5.60;;
20229;SDS011;12195;55.790;37.572;2023-02-25T12:05:19;45.08;;;7.28;;
20229;SDS011;12195;55.790;37.572;2023-02-25T12:08:06;35.50;;;6.80;;
20229;SDS011;12195;55.790;37.572;2023-02-25T12:19:00;29.70;;;5.33;;
20229;SDS011;12195;55.790;37.572;2023-02-25T12:35:59;28.27;;;5.60;;
20229;SDS011;12195;55.790;37.572;2023-02-25T12:38:59;10.75;;;4.87;;
20229;SDS011;12195;55.790;37.572;2023-02-25T12:44:47;28.07;;;6.20;;
20229;SDS011;12195;55.790;37.572;2023-02-25T12:47:39;17.65;;;5.42;;
20229;SDS011;12195;55.790;37.572;2023-02-25T12:53:28;39.83;;;8.18;;
20229;SDS011;12195;55.790;37.572;2023-02-25T12:59:14;46.63;;;6.55;;
20229;SDS011;12195;55.790;37.572;2023-02-25T13:10:40;23.75;;;5.58;;
20229;SDS011;12195;55.790;37.572;2023-02-25T13:22:21;31.45;;;4.92;;
20229;SDS011;12195;55.790;37.572;2023-02-25T13:25:11;38.02;;;5.70;;
20229;SDS011;12195;55.790;37.572;2023-02-25T13:30:34;41.20;;;7.30;;
20229;SDS011;12195;55.790;37.572;2023-02-25T13:33:19;38.55;;;6.53;;
20229;SDS011;12195;55.790;37.572;2023-02-25T13:36:20;22.17;;;5.28;;
20229;SDS011;12195;55.790;37.572;2023-02-25T13:42:11;20.37;;;5.75;;
20229;SDS011;12195;55.790;37.572;2023-02-25T13:45:18;10.80;;;4.65;;
20229;SDS011;12195;55.790;37.572;2023-02-25T13:56:31;10.48;;;5.28;;
20229;SDS011;12195;55.790;37.572;2023-02-25T14:22:53;27.10;;;5.67;;
20229;SDS011;12195;55.790;37.572;2023-02-25T14:25:41;20.50;;;5.50;;
20229;SDS011;12195;55.790;37.572;2023-02-25T14:31:14;21.12;;;5.67;;
20229;SDS011;12195;55.790;37.572;2023-02-25T14:37:12;24.80;;;6.20;;
20229;SDS011;12195;55.790;37.572;2023-02-25T14:42:40;13.05;;;5.97;;
20229;SDS011;12195;55.790;37.572;2023-02-25T14:45:17;12.10;;;5.40;;
20229;SDS011;12195;55.790;37.572;2023-02-25T14:47:58;22.62;;;6.90;;
20229;SDS011;12195;55.790;37.572;2023-02-25T14:53:44;15.23;;;6.47;;
20229;SDS011;12195;55.790;37.572;2023-02-25T14:56:50;12.37;;;6.67;;
20229;SDS011;12195;55.790;37.572;2023-02-25T14:59:37;12.23;;;6.70;;
20229;SDS011;12195;55.790;37.572;2023-02-25T15:07:55;20.00;;;7.97;;
20229;SDS011;12195;55.790;37.572;2023-02-25T15:16:20;28.70;;;8.98;;
20229;SDS011;12195;55.790;37.572;2023-02-25T15:24:46;22.75;;;8.88;;
20229;SDS011;12195;55.790;37.572;2023-02-25T15:30:14;20.95;;;8.80;;
20229;SDS011;12195;55.790;37.572;2023-02-25T15:32:52;27.20;;;10.48;;
20229;SDS011;12195;55.790;37.572;2023-02-25T15:38:21;25.43;;;9.88;;
20229;SDS011;12195;55.790;37.572;2023-02-25T15:40:49;20.00;;;8.58;;
20229;SDS011;12195;55.790;37.572;2023-02-25T15:43:36;19.07;;;8.65;;
20229;SDS011;12195;55.790;37.572;2023-02-25T15:48:43;16.73;;;8.30;;
20229;SDS011;12195;55.790;37.572;2023-02-25T15:51:37;17.37;;;8.35;;
20229;SDS011;12195;55.790;37.572;2023-02-25T15:54:10;18.20;;;7.85;;
20229;SDS011;12195;55.790;37.572;2023-02-25T15:57:00;13.10;;;7.25;;
20229;SDS011;12195;55.790;37.572;2023-02-25T15:59:50;22.35;;;8.25;;
20229;SDS011;12195;55.790;37.572;2023-02-25T16:07:50;15.80;;;8.60;;
20229;SDS011;12195;55.790;37.572;2023-02-25T16:10:40;13.53;;;7.70;;
20229;SDS011;12195;55.790;37.572;2023-02-25T16:13:15;17.20;;;8.80;;
20229;SDS011;12195;55.790;37.572;2023-02-25T16:15:50;17.35;;;9.03;;
20229;SDS011;12195;55.790;37.572;2023-02-25T16:18:40;21.25;;;9.08;;
20229;SDS011;12195;55.790;37.572;2023-02-25T16:21:21;13.78;;;7.60;;
20229;SDS011;12195;55.790;37.572;2023-02-25T16:23:55;16.42;;;8.38;;
20229;SDS011;12195;55.790;37.572;2023-02-25T16:31:50;20.85;;;9.55;;
20229;SDS011;12195;55.790;37.572;2023-02-25T16:37:08;15.18;;;8.73;;
20229;SDS011;12195;55.790;37.572;2023-02-25T16:39:41;11.68;;;8.13;;
20229;SDS011;12195;55.790;37.572;2023-02-25T16:42:14;16.82;;;9.43;;
20229;SDS011;12195;55.790;37.572;2023-02-25T16:45:00;19.67;;;9.75;;
20229;SDS011;12195;55.790;37.572;2023-02-25T16:47:35;13.25;;;9.25;;
20229;SDS011;12195;55.790;37.572;2023-02-25T16:50:12;13.65;;;8.93;;
20229;SDS011;12195;55.790;37.572;2023-02-25T16:52:45;15.90;;;9.55;;
20229;SDS011;12195;55.790;37.572;2023-02-25T16:55:21;13.85;;;9.58;;
20229;SDS011;12195;55.790;37.572;2023-02-25T16:58:09;14.53;;;9.78;;
20229;SDS011;12195;55.790;37.572;2023-02-25T17:03:43;14.05;;;8.48;;
20229;SDS011;12195;55.790;37.572;2023-02-25T17:06:17;16.77;;;10.82;;
20229;SDS011;12195;55.790;37.572;2023-02-25T17:08:49;23.07;;;9.80;;
20229;SDS011;12195;55.790;37.572;2023-02-25T17:11:22;32.50;;;11.15;;
20229;SDS011;12195;55.790;37.572;2023-02-25T17:13:56;20.97;;;10.90;;
20229;SDS011;12195;55.790;37.572;2023-02-25T17:16:32;18.23;;;9.23;;
20229;SDS011;12195;55.790;37.572;2023-02-25T17:19:08;25.45;;;10.70;;
20229;SDS011;12195;55.790;37.572;2023-02-25T17:21:42;27.58;;;11.48;;
20229;SDS011;12195;55.790;37.572;2023-02-25T17:24:18;28.73;;;10.75;;
20229;SDS011;12195;55.790;37.572;2023-02-25T17:26:53;23.75;;;11.50;;
20229;SDS011;12195;55.790;37.572;2023-02-25T17:29:32;17.55;;;9.23;;
20229;SDS011;12195;55.790;37.572;2023-02-25T17:32:12;20.00;;;10.43;;
20229;SDS011;12195;55.790;37.572;2023-02-25T17:34:47;27.13;;;10.90;;
20229;SDS011;12195;55.790;37.572;2023-02-25T17:37:22;20.60;;;9.70;;
20229;SDS011;12195;55.790;37.572;2023-02-25T17:39:56;17.23;;;9.43;;
20229;SDS011;12195;55.790;37.572;2023-02-25T17:42:33;27.20;;;10.85;;
20229;SDS011;12195;55.790;37.572;2023-02-25T17:48:14;25.80;;;11.15;;
20229;SDS011;12195;55.790;37.572;2023-02-25T17:53:45;24.92;;;10.20;;
20229;SDS011;12195;55.790;37.572;2023-02-25T17:56:20;18.00;;;10.25;;
20229;SDS011;12195;55.790;37.572;2023-02-25T17:58:58;18.42;;;10.82;;
20229;SDS011;12195;55.790;37.572;2023-02-25T18:01:46;25.48;;;10.85;;
20229;SDS011;12195;55.790;37.572;2023-02-25T18:04:34;20.85;;;10.75;;
20229;SDS011;12195;55.790;37.572;2023-02-25T18:07:20;24.00;;;12.07;;
20229;SDS011;12195;55.790;37.572;2023-02-25T18:09:55;28.38;;;12.10;;
20229;SDS011;12195;55.790;37.572;2023-02-25T18:12:31;23.80;;;11.55;;
20229;SDS011;12195;55.790;37.572;2023-02-25T18:15:15;24.18;;;12.23;;
20229;SDS011;12195;55.790;37.572;2023-02-25T18:17:50;23.67;;;12.58;;
20229;SDS011;12195;55.790;37.572;2023-02-25T18:20:25;21.68;;;12.78;;
20229;SDS011;12195;55.790;37.572;2023-02-25T18:28:54;27.42;;;13.93;;
20229;SDS011;12195;55.790;37.572;2023-02-25T18:31:27;26.00;;;11.75;;
20229;SDS011;12195;55.790;37.572;2023-02-25T18:34:01;24.95;;;11.65;;
20229;SDS011;12195;55.790;37.572;2023-02-25T18:36:33;28.55;;;15.55;;
20229;SDS011;12195;55.790;37.572;2023-02-25T18:39:05;28.35;;;15.13;;
20229;SDS011;12195;55.790;37.572;2023-02-25T18:41:38;26.27;;;15.28;;
20229;SDS011;12195;55.790;37.572;2023-02-25T18:44:13;25.75;;;14.78;;
20229;SDS011;12195;55.790;37.572;2023-02-25T18:46:46;28.70;;;15.32;;
20229;SDS011;12195;55.790;37.572;2023-02-25T18:49:18;32.28;;;15.00;;
20229;SDS011;12195;55.790;37.572;2023-02-25T18:51:50;33.75;;;16.37;;
20229;SDS011;12195;55.790;37.572;2023-02-25T18:54:22;27.13;;;14.20;;
20229;SDS011;12195;55.790;37.572;2023-02-25T18:56:55;34.33;;;16.00;;
20229;SDS011;12195;55.790;37.572;2023-02-25T18:59:27;30.50;;;15.18;;